createdAt,value
2022-08-02T00:03:24.906Z,2.67
2022-08-02T00:08:27.753Z,2.92
2022-08-02T00:13:29.589Z,3.10
2022-08-02T00:18:31.462Z,3.03
2022-08-02T00:23:33.147Z,3.20
2022-08-02T00:28:54.926Z,3.20
2022-08-02T00:34:05.772Z,3.47
2022-08-02T00:39:35.149Z,3.00
2022-08-02T00:44:38.042Z,3.00
2022-08-02T00:49:39.865Z,2.90
2022-08-02T00:54:41.850Z,3.37
2022-08-02T00:59:43.565Z,2.77
2022-08-02T01:04:45.272Z,3.10
2022-08-02T01:09:46.974Z,3.25
2022-08-02T01:14:51.130Z,3.20
2022-08-02T01:19:55.692Z,3.33
2022-08-02T01:25:31.125Z,2.83
2022-08-02T01:30:35.945Z,2.88
2022-08-02T01:35:50.670Z,2.90
2022-08-02T01:40:55.646Z,3.25
2022-08-02T01:46:00.021Z,2.90
2022-08-02T01:51:03.046Z,3.03
2022-08-02T01:56:07.504Z,2.95
2022-08-02T02:01:16.017Z,2.70
2022-08-02T02:06:22.971Z,2.65
2022-08-02T02:12:11.661Z,2.45
2022-08-02T02:16:48.304Z,2.42
2022-08-02T02:21:50.363Z,2.90
2022-08-02T02:26:52.832Z,2.80
2022-08-02T02:31:55.654Z,2.75
2022-08-02T02:42:04.336Z,2.50
2022-08-02T02:47:07.409Z,2.70
2022-08-02T02:52:10.529Z,3.10
2022-08-02T02:57:13.317Z,2.90
2022-08-02T03:02:15.410Z,2.53
2022-08-02T03:07:17.468Z,2.53
2022-08-02T03:12:19.977Z,2.47
2022-08-02T03:22:23.453Z,3.15
2022-08-02T03:27:25.175Z,2.58
2022-08-02T03:32:27.322Z,2.58
2022-08-02T03:37:30.557Z,2.53
2022-08-02T03:42:32.238Z,2.72
2022-08-02T03:47:34.410Z,2.28
2022-08-02T03:52:36.862Z,2.55
2022-08-02T03:57:40.038Z,2.95
2022-08-02T04:02:41.798Z,1.85
2022-08-02T04:08:33.740Z,2.80
2022-08-02T04:13:05.467Z,2.00
2022-08-02T04:18:08.748Z,2.45
2022-08-02T04:23:13.778Z,2.60
2022-08-02T04:28:18.367Z,2.63
2022-08-02T04:33:20.955Z,2.38
2022-08-02T04:38:22.758Z,2.90
2022-08-02T04:43:24.914Z,2.73
2022-08-02T04:48:26.582Z,2.78
2022-08-02T04:53:28.294Z,2.60
2022-08-02T04:58:45.332Z,3.15
2022-08-02T05:03:47.060Z,2.80
2022-08-02T05:08:53.270Z,2.55
2022-08-02T05:13:57.992Z,2.53
2022-08-02T05:19:02.342Z,3.10
2022-08-02T05:24:05.349Z,2.90
2022-08-02T05:29:07.131Z,3.10
2022-08-02T05:34:11.960Z,3.17
2022-08-02T05:39:19.073Z,3.00
2022-08-02T05:44:21.416Z,3.30
2022-08-02T05:49:23.251Z,3.30
2022-08-02T05:54:44.486Z,3.10
2022-08-02T06:00:06.548Z,3.28
2022-08-02T06:05:17.205Z,3.53
2022-08-02T06:10:21.409Z,3.03
2022-08-02T06:15:23.202Z,3.30
2022-08-02T06:20:27.034Z,3.30
2022-08-02T06:25:49.882Z,3.60
2022-08-02T06:30:51.409Z,3.42
2022-08-02T06:36:19.330Z,3.03
2022-08-02T06:41:24.442Z,3.38
2022-08-02T06:47:08.206Z,3.63
2022-08-02T06:51:48.199Z,3.40
2022-08-02T06:56:49.986Z,3.10
2022-08-02T07:01:51.840Z,3.60
2022-08-02T07:06:53.701Z,3.70
2022-08-02T07:11:55.766Z,3.40
2022-08-02T07:16:58.303Z,3.97
2022-08-02T07:22:02.518Z,3.67
2022-08-02T07:27:12.567Z,3.57
2022-08-02T07:32:16.585Z,3.53
2022-08-02T07:37:35.942Z,3.30
2022-08-02T07:42:40.480Z,4.03
2022-08-02T07:47:43.912Z,3.57
2022-08-02T07:52:46.177Z,4.00
2022-08-02T07:57:47.992Z,4.03
2022-08-02T08:02:49.690Z,3.60
2022-08-02T08:12:55.222Z,3.30
2022-08-02T08:17:57.067Z,3.65
2022-08-02T08:28:01.299Z,3.30
2022-08-02T08:33:03.034Z,3.47
2022-08-02T08:38:07.853Z,3.40
2022-08-02T08:43:13.771Z,3.60
2022-08-02T08:48:21.808Z,3.42
2022-08-02T08:53:39.977Z,3.05
2022-08-02T08:58:45.036Z,2.80
2022-08-02T09:03:47.033Z,2.72
2022-08-02T09:08:48.872Z,2.50
2022-08-02T09:13:58.918Z,2.08
2022-08-02T09:19:16.524Z,2.00
2022-08-02T09:24:23.347Z,2.28
2022-08-02T09:29:26.202Z,2.10
2022-08-02T09:34:43.775Z,2.13
2022-08-02T09:39:47.545Z,1.90
2022-08-02T09:45:00.009Z,1.67
2022-08-02T09:50:01.939Z,1.70
2022-08-02T09:55:06.832Z,1.70
2022-08-02T10:00:15.068Z,1.80
2022-08-02T10:05:21.009Z,1.90
2022-08-02T10:10:24.343Z,1.80
2022-08-02T10:15:27.619Z,1.70
2022-08-02T10:20:32.971Z,1.65
2022-08-02T10:25:38.103Z,1.80
2022-08-02T10:30:43.720Z,1.83
2022-08-02T10:35:50.408Z,1.50
2022-08-02T10:41:08.695Z,1.60
2022-08-02T10:46:29.334Z,1.73
2022-08-02T10:52:02.603Z,2.03
2022-08-02T10:57:15.501Z,2.20
2022-08-02T11:02:47.077Z,1.52
2022-08-02T11:07:50.100Z,1.60
2022-08-02T11:12:58.586Z,1.60
2022-08-02T11:18:00.341Z,1.70
2022-08-02T11:23:44.723Z,1.55
2022-08-02T11:28:50.713Z,1.63
2022-08-02T11:33:53.100Z,1.40
2022-08-02T11:39:15.811Z,1.40
2022-08-02T11:44:18.813Z,1.70
2022-08-02T11:49:25.145Z,1.48
2022-08-02T11:54:32.069Z,1.70
2022-08-02T11:59:39.023Z,1.38
2022-08-02T12:04:41.551Z,1.40
2022-08-02T12:09:45.867Z,1.40
2022-08-02T12:14:47.683Z,1.40
2022-08-02T12:19:49.398Z,1.40
2022-08-02T12:24:53.519Z,1.30
2022-08-02T12:30:16.003Z,1.13
2022-08-02T12:35:26.762Z,1.13
2022-08-02T12:40:32.998Z,1.30
2022-08-02T12:46:01.452Z,1.10
2022-08-02T12:51:24.553Z,1.17
2022-08-02T12:56:33.607Z,1.25
2022-08-02T13:01:36.379Z,1.25
2022-08-02T13:06:45.728Z,1.55
2022-08-02T13:11:47.741Z,1.02
2022-08-02T13:16:49.653Z,0.90
2022-08-02T13:27:05.192Z,1.23
2022-08-02T13:32:10.648Z,1.10
2022-08-02T13:37:12.861Z,1.25
2022-08-02T13:47:26.778Z,1.20
2022-08-02T13:52:38.351Z,1.30
2022-08-02T13:57:40.087Z,1.00
2022-08-02T14:02:43.143Z,1.08
2022-08-02T14:12:46.853Z,1.35
2022-08-02T14:17:58.294Z,1.00
2022-08-02T14:23:00.034Z,1.00
2022-08-02T14:28:02.826Z,1.00
2022-08-02T14:33:04.762Z,1.10
2022-08-02T14:38:06.742Z,1.25
2022-08-02T14:48:11.329Z,1.20
2022-08-02T14:53:13.272Z,1.10
2022-08-02T14:58:14.971Z,1.00
2022-08-02T15:03:16.718Z,1.33
2022-08-02T15:08:18.570Z,1.10
2022-08-02T15:18:22.956Z,1.40
2022-08-02T15:23:38.437Z,1.10
2022-08-02T15:28:40.499Z,1.20
2022-08-02T15:33:44.163Z,1.38
2022-08-02T15:38:45.839Z,1.35
2022-08-02T15:44:01.045Z,1.10
2022-08-02T15:49:03.265Z,1.13
2022-08-02T15:54:05.167Z,1.30
2022-08-02T15:59:06.941Z,1.00
2022-08-02T16:04:09.002Z,0.98
2022-08-02T16:14:12.581Z,1.00
2022-08-02T16:19:47.734Z,0.85
2022-08-02T16:24:36.887Z,0.93
2022-08-02T16:29:38.658Z,1.00
2022-08-02T16:35:07.143Z,0.80
2022-08-02T16:40:02.278Z,0.80
2022-08-02T16:45:04.990Z,0.75
2022-08-02T16:50:10.543Z,1.00
2022-08-02T16:55:12.428Z,0.90
2022-08-02T17:00:15.511Z,0.80
2022-08-02T17:05:17.938Z,0.90
2022-08-02T17:10:19.681Z,0.93
2022-08-02T17:16:16.373Z,0.75
2022-08-02T17:20:44.934Z,0.80
2022-08-02T17:25:52.360Z,0.98
2022-08-02T17:30:54.198Z,0.88
2022-08-02T17:35:56.375Z,1.08
2022-08-02T17:40:58.759Z,0.93
2022-08-02T17:46:02.396Z,0.85
2022-08-02T17:51:04.570Z,0.95
2022-08-02T17:56:06.382Z,0.80
2022-08-02T18:01:23.469Z,1.05
2022-08-02T18:06:26.142Z,0.88
2022-08-02T18:16:50.792Z,1.10
2022-08-02T18:21:52.732Z,1.08
2022-08-02T18:26:56.699Z,1.08
2022-08-02T18:31:58.569Z,1.00
2022-08-02T18:37:00.217Z,1.20
2022-08-02T18:42:01.993Z,1.30
2022-08-02T18:47:03.819Z,1.30
2022-08-02T18:52:05.919Z,1.10
2022-08-02T18:58:16.652Z,1.10
2022-08-02T19:02:31.206Z,1.42
2022-08-02T19:07:49.827Z,1.50
2022-08-02T19:12:53.172Z,1.20
2022-08-02T19:17:58.077Z,1.30
2022-08-02T19:23:02.819Z,1.38
2022-08-02T19:28:05.444Z,1.55
2022-08-02T19:33:10.615Z,1.40
2022-08-02T19:38:26.810Z,1.35
2022-08-02T19:44:23.106Z,1.20
2022-08-02T19:48:51.559Z,1.30
2022-08-02T19:53:53.301Z,1.13
2022-08-02T19:58:57.677Z,1.50
2022-08-02T20:03:59.674Z,1.50
2022-08-02T20:09:02.283Z,1.50
2022-08-02T20:14:05.242Z,1.63
2022-08-02T20:19:09.989Z,1.95
2022-08-02T20:24:11.949Z,1.58
2022-08-02T20:29:14.001Z,1.60
2022-08-02T20:34:15.813Z,1.53
2022-08-02T20:39:20.325Z,1.58
2022-08-02T20:44:31.021Z,1.38
2022-08-02T20:49:40.841Z,1.20
2022-08-02T20:54:43.693Z,1.30
2022-08-02T20:59:51.974Z,1.20
2022-08-02T21:04:53.841Z,1.10
2022-08-02T21:09:55.530Z,1.00
2022-08-02T21:14:57.377Z,1.30
2022-08-02T21:20:01.507Z,1.40
2022-08-02T21:25:03.502Z,1.43
2022-08-02T21:30:11.529Z,1.30
2022-08-02T21:35:13.453Z,1.67
2022-08-02T21:40:15.422Z,1.70
2022-08-02T21:45:20.145Z,1.63
2022-08-02T21:50:22.107Z,1.50
2022-08-02T21:55:24.027Z,1.60
2022-08-02T22:00:28.565Z,1.50
2022-08-02T22:05:37.221Z,1.48
2022-08-02T22:10:58.007Z,1.63
2022-08-02T22:16:04.278Z,1.63
2022-08-02T22:21:14.236Z,1.67
2022-08-02T22:26:19.611Z,1.52
2022-08-02T22:31:40.577Z,1.33
2022-08-02T22:36:44.530Z,1.80
2022-08-02T22:42:05.381Z,1.67
2022-08-02T22:47:14.609Z,1.53
2022-08-02T22:52:20.192Z,1.50
2022-08-02T22:57:30.361Z,1.80
2022-08-02T22:58:43.501Z,1.10
2022-08-02T23:02:33.296Z,1.60
2022-08-02T23:07:37.004Z,1.57
2022-08-02T23:12:41.019Z,1.80
2022-08-02T23:18:01.476Z,1.40
2022-08-02T23:23:03.256Z,1.70
2022-08-02T23:28:13.438Z,1.60
2022-08-02T23:33:15.205Z,1.70
2022-08-02T23:38:17.198Z,2.00
2022-08-02T23:43:18.901Z,2.20
2022-08-02T23:48:20.917Z,1.90
2022-08-02T23:53:22.630Z,1.75
2022-08-02T23:58:24.544Z,1.70
